sensor_id;sensor_type;location;lat;lon;timestamp;temperature;humidity
4637;DHT22;2331;48.806;9.140;2023-02-15T00:01:21;4.10;1.00
4637;DHT22;2331;48.806;9.140;2023-02-15T00:03:48;4.10;1.00
4637;DHT22;2331;48.806;9.140;2023-02-15T00:06:15;4.10;1.00
4637;DHT22;2331;48.806;9.140;2023-02-15T00:08:42;4.10;1.00
4637;DHT22;2331;48.806;9.140;2023-02-15T00:11:10;4.00;1.00
4637;DHT22;2331;48.806;9.140;2023-02-15T00:13:37;4.00;1.00
4637;DHT22;2331;48.806;9.140;2023-02-15T00:16:07;4.00;1.00
4637;DHT22;2331;48.806;9.140;2023-02-15T00:18:34;4.00;1.00
4637;DHT22;2331;48.806;9.140;2023-02-15T00:21:04;4.00;1.00
4637;DHT22;2331;48.806;9.140;2023-02-15T00:23:31;3.90;1.00
4637;DHT22;2331;48.806;9.140;2023-02-15T00:26:05;4.00;1.00
4637;DHT22;2331;48.806;9.140;2023-02-15T00:28:32;4.00;1.00
4637;DHT22;2331;48.806;9.140;2023-02-15T00:31:05;4.00;1.00
4637;DHT22;2331;48.806;9.140;2023-02-15T00:33:32;3.90;1.00
4637;DHT22;2331;48.806;9.140;2023-02-15T00:35:59;3.90;1.00
4637;DHT22;2331;48.806;9.140;2023-02-15T00:38:27;3.90;1.00
4637;DHT22;2331;48.806;9.140;2023-02-15T00:40:54;3.80;1.00
4637;DHT22;2331;48.806;9.140;2023-02-15T00:43:21;3.80;1.00
4637;DHT22;2331;48.806;9.140;2023-02-15T00:45:48;3.80;1.00
4637;DHT22;2331;48.806;9.140;2023-02-15T00:48:17;3.80;1.00
4637;DHT22;2331;48.806;9.140;2023-02-15T00:50:45;3.70;1.00
4637;DHT22;2331;48.806;9.140;2023-02-15T00:53:12;3.70;1.00
4637;DHT22;2331;48.806;9.140;2023-02-15T00:55:38;3.70;1.00
4637;DHT22;2331;48.806;9.140;2023-02-15T00:58:05;3.70;1.00
4637;DHT22;2331;48.806;9.140;2023-02-15T01:00:32;3.70;1.00
4637;DHT22;2331;48.806;9.140;2023-02-15T01:02:59;3.70;1.00
4637;DHT22;2331;48.806;9.140;2023-02-15T01:05:27;3.70;1.00
4637;DHT22;2331;48.806;9.140;2023-02-15T01:07:55;3.70;1.00
4637;DHT22;2331;48.806;9.140;2023-02-15T01:10:22;3.70;1.00
4637;DHT22;2331;48.806;9.140;2023-02-15T01:12:50;3.70;1.00
4637;DHT22;2331;48.806;9.140;2023-02-15T01:15:17;3.70;1.00
4637;DHT22;2331;48.806;9.140;2023-02-15T01:17:44;3.60;1.00
4637;DHT22;2331;48.806;9.140;2023-02-15T01:20:16;3.50;1.00
4637;DHT22;2331;48.806;9.140;2023-02-15T01:22:44;3.60;1.00
4637;DHT22;2331;48.806;9.140;2023-02-15T01:25:11;3.50;1.00
4637;DHT22;2331;48.806;9.140;2023-02-15T01:27:38;3.50;1.00
4637;DHT22;2331;48.806;9.140;2023-02-15T01:30:05;3.50;1.00
4637;DHT22;2331;48.806;9.140;2023-02-15T01:32:32;3.50;1.00
4637;DHT22;2331;48.806;9.140;2023-02-15T01:34:59;3.50;1.00
4637;DHT22;2331;48.806;9.140;2023-02-15T01:37:25;3.50;1.00
4637;DHT22;2331;48.806;9.140;2023-02-15T01:39:53;3.50;1.00
4637;DHT22;2331;48.806;9.140;2023-02-15T01:42:21;3.50;1.00
4637;DHT22;2331;48.806;9.140;2023-02-15T01:44:50;3.40;1.00
4637;DHT22;2331;48.806;9.140;2023-02-15T01:47:22;3.40;1.00
4637;DHT22;2331;48.806;9.140;2023-02-15T01:50:00;3.40;1.00
4637;DHT22;2331;48.806;9.140;2023-02-15T01:52:29;3.40;1.00
4637;DHT22;2331;48.806;9.140;2023-02-15T01:54:57;3.40;1.00
4637;DHT22;2331;48.806;9.140;2023-02-15T01:57:26;3.30;1.00
4637;DHT22;2331;48.806;9.140;2023-02-15T01:59:56;3.30;1.00
4637;DHT22;2331;48.806;9.140;2023-02-15T02:02:27;3.30;1.00
4637;DHT22;2331;48.806;9.140;2023-02-15T02:04:56;3.20;1.00
4637;DHT22;2331;48.806;9.140;2023-02-15T02:07:27;3.30;1.00
4637;DHT22;2331;48.806;9.140;2023-02-15T02:09:56;3.20;1.00
4637;DHT22;2331;48.806;9.140;2023-02-15T02:12:23;3.20;1.00
4637;DHT22;2331;48.806;9.140;2023-02-15T02:14:51;3.20;1.00
4637;DHT22;2331;48.806;9.140;2023-02-15T02:17:24;3.20;1.00
4637;DHT22;2331;48.806;9.140;2023-02-15T02:20:16;3.20;1.00
4637;DHT22;2331;48.806;9.140;2023-02-15T02:23:08;3.10;1.00
4637;DHT22;2331;48.806;9.140;2023-02-15T02:25:51;3.10;1.00
4637;DHT22;2331;48.806;9.140;2023-02-15T02:28:44;3.00;1.00
4637;DHT22;2331;48.806;9.140;2023-02-15T02:31:36;3.00;1.00
4637;DHT22;2331;48.806;9.140;2023-02-15T02:34:11;3.00;1.00
4637;DHT22;2331;48.806;9.140;2023-02-15T02:36:49;3.00;1.00
4637;DHT22;2331;48.806;9.140;2023-02-15T02:39:25;3.10;1.00
4637;DHT22;2331;48.806;9.140;2023-02-15T02:42:02;3.00;1.00
4637;DHT22;2331;48.806;9.140;2023-02-15T02:44:38;3.00;1.00
4637;DHT22;2331;48.806;9.140;2023-02-15T02:47:10;3.00;1.00
4637;DHT22;2331;48.806;9.140;2023-02-15T02:49:41;3.00;1.00
4637;DHT22;2331;48.806;9.140;2023-02-15T02:55:18;3.00;1.00
4637;DHT22;2331;48.806;9.140;2023-02-15T02:57:52;2.90;1.00
4637;DHT22;2331;48.806;9.140;2023-02-15T03:00:21;2.80;1.00
4637;DHT22;2331;48.806;9.140;2023-02-15T03:02:53;2.80;1.00
4637;DHT22;2331;48.806;9.140;2023-02-15T03:05:26;2.80;1.00
4637;DHT22;2331;48.806;9.140;2023-02-15T03:07:55;2.80;1.00
4637;DHT22;2331;48.806;9.140;2023-02-15T03:10:24;2.80;1.00
4637;DHT22;2331;48.806;9.140;2023-02-15T03:12:52;2.80;1.00
4637;DHT22;2331;48.806;9.140;2023-02-15T03:15:20;2.80;1.00
4637;DHT22;2331;48.806;9.140;2023-02-15T03:17:51;2.90;1.00
4637;DHT22;2331;48.806;9.140;2023-02-15T03:20:25;2.80;1.00
4637;DHT22;2331;48.806;9.140;2023-02-15T03:22:55;2.80;1.00
4637;DHT22;2331;48.806;9.140;2023-02-15T03:25:24;2.70;1.00
4637;DHT22;2331;48.806;9.140;2023-02-15T03:27:55;2.80;1.00
4637;DHT22;2331;48.806;9.140;2023-02-15T03:30:22;2.80;1.00
4637;DHT22;2331;48.806;9.140;2023-02-15T03:32:51;2.70;1.00
4637;DHT22;2331;48.806;9.140;2023-02-15T03:35:19;2.70;1.00
4637;DHT22;2331;48.806;9.140;2023-02-15T03:37:53;2.70;1.00
4637;DHT22;2331;48.806;9.140;2023-02-15T03:40:23;2.60;1.00
4637;DHT22;2331;48.806;9.140;2023-02-15T03:43:14;2.60;1.00
4637;DHT22;2331;48.806;9.140;2023-02-15T03:45:43;2.60;1.00
4637;DHT22;2331;48.806;9.140;2023-02-15T03:48:23;2.50;1.00
4637;DHT22;2331;48.806;9.140;2023-02-15T03:50:52;2.60;1.00
4637;DHT22;2331;48.806;9.140;2023-02-15T03:53:41;2.60;1.00
4637;DHT22;2331;48.806;9.140;2023-02-15T03:56:08;2.60;1.00
4637;DHT22;2331;48.806;9.140;2023-02-15T03:58:35;2.60;1.00
4637;DHT22;2331;48.806;9.140;2023-02-15T04:01:25;2.60;1.00
4637;DHT22;2331;48.806;9.140;2023-02-15T04:04:13;2.70;1.00
4637;DHT22;2331;48.806;9.140;2023-02-15T04:06:40;2.60;1.00
4637;DHT22;2331;48.806;9.140;2023-02-15T04:09:08;2.60;1.00
4637;DHT22;2331;48.806;9.140;2023-02-15T04:11:53;2.60;1.00
4637;DHT22;2331;48.806;9.140;2023-02-15T04:14:19;2.50;1.00
4637;DHT22;2331;48.806;9.140;2023-02-15T04:17:05;2.40;1.00
4637;DHT22;2331;48.806;9.140;2023-02-15T04:19:32;2.40;1.00
4637;DHT22;2331;48.806;9.140;2023-02-15T04:22:16;2.50;1.00
4637;DHT22;2331;48.806;9.140;2023-02-15T04:25:02;2.50;1.00
4637;DHT22;2331;48.806;9.140;2023-02-15T04:27:39;2.40;1.00
4637;DHT22;2331;48.806;9.140;2023-02-15T04:30:07;2.40;1.00
4637;DHT22;2331;48.806;9.140;2023-02-15T04:32:35;2.50;1.00
4637;DHT22;2331;48.806;9.140;2023-02-15T04:35:03;2.50;1.00
4637;DHT22;2331;48.806;9.140;2023-02-15T04:37:30;2.50;1.00
4637;DHT22;2331;48.806;9.140;2023-02-15T04:39:56;2.40;1.00
4637;DHT22;2331;48.806;9.140;2023-02-15T04:42:25;2.40;1.00
4637;DHT22;2331;48.806;9.140;2023-02-15T04:44:52;2.40;1.00
4637;DHT22;2331;48.806;9.140;2023-02-15T04:47:18;2.40;1.00
4637;DHT22;2331;48.806;9.140;2023-02-15T04:49:45;2.30;1.00
4637;DHT22;2331;48.806;9.140;2023-02-15T04:52:12;2.30;1.00
4637;DHT22;2331;48.806;9.140;2023-02-15T04:54:39;2.40;1.00
4637;DHT22;2331;48.806;9.140;2023-02-15T04:57:06;2.30;1.00
4637;DHT22;2331;48.806;9.140;2023-02-15T04:59:34;2.30;1.00
4637;DHT22;2331;48.806;9.140;2023-02-15T05:02:00;2.30;1.00
4637;DHT22;2331;48.806;9.140;2023-02-15T05:04:27;2.20;1.00
4637;DHT22;2331;48.806;9.140;2023-02-15T05:06:54;2.20;1.00
4637;DHT22;2331;48.806;9.140;2023-02-15T05:09:20;2.20;1.00
4637;DHT22;2331;48.806;9.140;2023-02-15T05:11:47;2.10;1.00
4637;DHT22;2331;48.806;9.140;2023-02-15T05:14:14;2.10;1.00
4637;DHT22;2331;48.806;9.140;2023-02-15T05:16:42;2.10;1.00
4637;DHT22;2331;48.806;9.140;2023-02-15T05:19:08;2.00;1.00
4637;DHT22;2331;48.806;9.140;2023-02-15T05:21:35;2.10;1.00
4637;DHT22;2331;48.806;9.140;2023-02-15T05:24:02;2.00;1.00
4637;DHT22;2331;48.806;9.140;2023-02-15T05:26:49;2.10;1.00
4637;DHT22;2331;48.806;9.140;2023-02-15T05:29:33;2.10;1.00
4637;DHT22;2331;48.806;9.140;2023-02-15T05:32:01;2.10;1.00
4637;DHT22;2331;48.806;9.140;2023-02-15T05:34:29;2.10;1.00
4637;DHT22;2331;48.806;9.140;2023-02-15T05:36:56;2.00;1.00
4637;DHT22;2331;48.806;9.140;2023-02-15T05:39:22;2.00;1.00
4637;DHT22;2331;48.806;9.140;2023-02-15T05:41:49;2.00;1.00
4637;DHT22;2331;48.806;9.140;2023-02-15T05:44:16;1.90;1.00
4637;DHT22;2331;48.806;9.140;2023-02-15T05:46:42;2.00;1.00
4637;DHT22;2331;48.806;9.140;2023-02-15T05:49:11;1.90;1.00
4637;DHT22;2331;48.806;9.140;2023-02-15T05:51:37;2.00;1.00
4637;DHT22;2331;48.806;9.140;2023-02-15T05:54:04;2.00;1.00
4637;DHT22;2331;48.806;9.140;2023-02-15T05:56:31;1.90;1.00
4637;DHT22;2331;48.806;9.140;2023-02-15T05:58:57;1.90;1.00
4637;DHT22;2331;48.806;9.140;2023-02-15T06:01:24;1.90;1.00
4637;DHT22;2331;48.806;9.140;2023-02-15T06:03:51;1.90;1.00
4637;DHT22;2331;48.806;9.140;2023-02-15T06:06:19;1.80;1.00
4637;DHT22;2331;48.806;9.140;2023-02-15T06:08:46;1.80;1.00
4637;DHT22;2331;48.806;9.140;2023-02-15T06:11:13;1.80;1.00
4637;DHT22;2331;48.806;9.140;2023-02-15T06:13:39;1.80;1.00
4637;DHT22;2331;48.806;9.140;2023-02-15T06:16:06;1.80;1.00
4637;DHT22;2331;48.806;9.140;2023-02-15T06:18:33;1.80;1.00
4637;DHT22;2331;48.806;9.140;2023-02-15T06:21:00;1.80;1.00
4637;DHT22;2331;48.806;9.140;2023-02-15T06:23:28;1.80;1.00
4637;DHT22;2331;48.806;9.140;2023-02-15T06:25:54;1.70;1.00
4637;DHT22;2331;48.806;9.140;2023-02-15T06:28:21;1.70;1.00
4637;DHT22;2331;48.806;9.140;2023-02-15T06:30:48;1.70;1.00
4637;DHT22;2331;48.806;9.140;2023-02-15T06:33:14;1.70;1.00
4637;DHT22;2331;48.806;9.140;2023-02-15T06:35:41;1.70;1.00
4637;DHT22;2331;48.806;9.140;2023-02-15T06:38:08;1.70;1.00
4637;DHT22;2331;48.806;9.140;2023-02-15T06:40:36;1.60;1.00
4637;DHT22;2331;48.806;9.140;2023-02-15T06:43:03;1.60;1.00
4637;DHT22;2331;48.806;9.140;2023-02-15T06:45:29;1.60;1.00
4637;DHT22;2331;48.806;9.140;2023-02-15T06:47:56;1.60;1.00
4637;DHT22;2331;48.806;9.140;2023-02-15T06:50:23;1.50;1.00
4637;DHT22;2331;48.806;9.140;2023-02-15T06:52:55;1.60;1.00
4637;DHT22;2331;48.806;9.140;2023-02-15T06:55:22;1.50;1.00
4637;DHT22;2331;48.806;9.140;2023-02-15T06:57:50;1.50;1.00
4637;DHT22;2331;48.806;9.140;2023-02-15T07:00:17;1.50;1.00
4637;DHT22;2331;48.806;9.140;2023-02-15T07:02:44;1.50;1.00
4637;DHT22;2331;48.806;9.140;2023-02-15T07:05:11;1.50;1.00
4637;DHT22;2331;48.806;9.140;2023-02-15T07:07:37;1.50;1.00
4637;DHT22;2331;48.806;9.140;2023-02-15T07:10:05;1.40;1.00
4637;DHT22;2331;48.806;9.140;2023-02-15T07:12:32;1.50;1.00
4637;DHT22;2331;48.806;9.140;2023-02-15T07:15:09;1.50;1.00
4637;DHT22;2331;48.806;9.140;2023-02-15T07:17:36;1.50;1.00
4637;DHT22;2331;48.806;9.140;2023-02-15T07:20:04;1.50;1.00
4637;DHT22;2331;48.806;9.140;2023-02-15T07:22:33;1.40;1.00
4637;DHT22;2331;48.806;9.140;2023-02-15T07:25:01;1.50;1.00
4637;DHT22;2331;48.806;9.140;2023-02-15T07:27:29;1.50;1.00
4637;DHT22;2331;48.806;9.140;2023-02-15T07:29:55;1.50;1.00
4637;DHT22;2331;48.806;9.140;2023-02-15T07:32:23;1.50;1.00
4637;DHT22;2331;48.806;9.140;2023-02-15T07:34:50;1.50;1.00
4637;DHT22;2331;48.806;9.140;2023-02-15T07:37:17;1.50;1.00
4637;DHT22;2331;48.806;9.140;2023-02-15T07:39:43;1.60;1.00
4637;DHT22;2331;48.806;9.140;2023-02-15T07:42:10;1.50;1.00
4637;DHT22;2331;48.806;9.140;2023-02-15T07:44:36;1.60;1.00
4637;DHT22;2331;48.806;9.140;2023-02-15T07:47:03;1.60;1.00
4637;DHT22;2331;48.806;9.140;2023-02-15T07:49:31;1.70;1.00
4637;DHT22;2331;48.806;9.140;2023-02-15T07:52:00;1.70;1.00
4637;DHT22;2331;48.806;9.140;2023-02-15T07:54:27;1.70;1.00
4637;DHT22;2331;48.806;9.140;2023-02-15T07:56:54;1.70;1.00
4637;DHT22;2331;48.806;9.140;2023-02-15T07:59:20;1.70;1.00
4637;DHT22;2331;48.806;9.140;2023-02-15T08:01:47;1.70;1.00
4637;DHT22;2331;48.806;9.140;2023-02-15T08:04:14;1.70;1.00
4637;DHT22;2331;48.806;9.140;2023-02-15T08:06:43;1.80;1.00
4637;DHT22;2331;48.806;9.140;2023-02-15T08:09:09;1.70;1.00
4637;DHT22;2331;48.806;9.140;2023-02-15T08:11:37;1.60;1.00
4637;DHT22;2331;48.806;9.140;2023-02-15T08:14:06;1.70;1.00
4637;DHT22;2331;48.806;9.140;2023-02-15T08:16:35;1.60;1.00
4637;DHT22;2331;48.806;9.140;2023-02-15T08:19:04;1.50;1.00
4637;DHT22;2331;48.806;9.140;2023-02-15T08:21:32;1.50;1.00
4637;DHT22;2331;48.806;9.140;2023-02-15T08:24:01;1.60;1.00
4637;DHT22;2331;48.806;9.140;2023-02-15T08:26:29;1.70;1.00
4637;DHT22;2331;48.806;9.140;2023-02-15T08:28:56;1.70;1.00
4637;DHT22;2331;48.806;9.140;2023-02-15T08:31:23;1.80;1.00
4637;DHT22;2331;48.806;9.140;2023-02-15T08:33:51;1.70;1.00
4637;DHT22;2331;48.806;9.140;2023-02-15T08:36:20;1.70;1.00
4637;DHT22;2331;48.806;9.140;2023-02-15T08:38:47;1.70;1.00
4637;DHT22;2331;48.806;9.140;2023-02-15T08:41:17;1.70;1.00
4637;DHT22;2331;48.806;9.140;2023-02-15T08:43:46;1.70;1.00
4637;DHT22;2331;48.806;9.140;2023-02-15T08:46:14;1.80;1.00
4637;DHT22;2331;48.806;9.140;2023-02-15T08:48:41;1.90;1.00
4637;DHT22;2331;48.806;9.140;2023-02-15T08:51:09;1.90;1.00
4637;DHT22;2331;48.806;9.140;2023-02-15T08:53:37;2.00;1.00
4637;DHT22;2331;48.806;9.140;2023-02-15T08:56:05;2.00;1.00
4637;DHT22;2331;48.806;9.140;2023-02-15T08:58:33;2.00;1.00
4637;DHT22;2331;48.806;9.140;2023-02-15T09:00:59;2.10;1.00
4637;DHT22;2331;48.806;9.140;2023-02-15T09:03:28;2.10;1.00
4637;DHT22;2331;48.806;9.140;2023-02-15T09:05:58;2.20;1.00
4637;DHT22;2331;48.806;9.140;2023-02-15T09:08:25;2.20;1.00
4637;DHT22;2331;48.806;9.140;2023-02-15T09:10:52;2.30;1.00
4637;DHT22;2331;48.806;9.140;2023-02-15T09:13:19;2.40;1.00
4637;DHT22;2331;48.806;9.140;2023-02-15T09:15:47;2.40;1.00
4637;DHT22;2331;48.806;9.140;2023-02-15T09:18:14;2.40;1.00
4637;DHT22;2331;48.806;9.140;2023-02-15T09:20:43;2.50;1.00
4637;DHT22;2331;48.806;9.140;2023-02-15T09:23:10;2.60;1.00
4637;DHT22;2331;48.806;9.140;2023-02-15T09:25:37;2.60;1.00
4637;DHT22;2331;48.806;9.140;2023-02-15T09:28:04;2.60;1.00
4637;DHT22;2331;48.806;9.140;2023-02-15T09:30:30;2.70;1.00
4637;DHT22;2331;48.806;9.140;2023-02-15T09:32:58;2.70;1.00
4637;DHT22;2331;48.806;9.140;2023-02-15T09:35:25;2.80;1.00
4637;DHT22;2331;48.806;9.140;2023-02-15T09:37:52;2.80;1.00
4637;DHT22;2331;48.806;9.140;2023-02-15T09:40:18;2.90;1.00
4637;DHT22;2331;48.806;9.140;2023-02-15T09:42:58;2.90;1.00
4637;DHT22;2331;48.806;9.140;2023-02-15T09:45:35;2.90;1.00
4637;DHT22;2331;48.806;9.140;2023-02-15T09:48:17;3.00;1.00
4637;DHT22;2331;48.806;9.140;2023-02-15T09:50:55;3.10;1.00
4637;DHT22;2331;48.806;9.140;2023-02-15T09:53:41;3.20;1.00
4637;DHT22;2331;48.806;9.140;2023-02-15T09:56:16;3.30;1.00
4637;DHT22;2331;48.806;9.140;2023-02-15T09:58:52;3.40;1.00
4637;DHT22;2331;48.806;9.140;2023-02-15T10:01:28;3.40;1.00
4637;DHT22;2331;48.806;9.140;2023-02-15T10:04:20;3.50;1.00
4637;DHT22;2331;48.806;9.140;2023-02-15T10:06:55;3.60;1.00
4637;DHT22;2331;48.806;9.140;2023-02-15T10:09:52;3.70;1.00
4637;DHT22;2331;48.806;9.140;2023-02-15T10:12:32;3.90;1.00
4637;DHT22;2331;48.806;9.140;2023-02-15T10:15:13;3.90;1.00
4637;DHT22;2331;48.806;9.140;2023-02-15T10:17:52;4.00;1.00
4637;DHT22;2331;48.806;9.140;2023-02-15T10:20:30;4.10;1.00
4637;DHT22;2331;48.806;9.140;2023-02-15T10:23:15;4.30;1.00
4637;DHT22;2331;48.806;9.140;2023-02-15T10:25:48;4.30;1.00
4637;DHT22;2331;48.806;9.140;2023-02-15T10:28:19;4.50;1.00
4637;DHT22;2331;48.806;9.140;2023-02-15T10:30:48;4.60;1.00
4637;DHT22;2331;48.806;9.140;2023-02-15T10:33:33;4.80;1.00
4637;DHT22;2331;48.806;9.140;2023-02-15T10:36:11;4.90;1.00
4637;DHT22;2331;48.806;9.140;2023-02-15T10:38:47;5.00;1.00
4637;DHT22;2331;48.806;9.140;2023-02-15T10:41:28;5.10;1.00
4637;DHT22;2331;48.806;9.140;2023-02-15T10:44:12;5.30;1.00
4637;DHT22;2331;48.806;9.140;2023-02-15T10:49:52;5.50;1.00
4637;DHT22;2331;48.806;9.140;2023-02-15T10:52:28;5.60;1.00
4637;DHT22;2331;48.806;9.140;2023-02-15T10:55:08;5.70;1.00
4637;DHT22;2331;48.806;9.140;2023-02-15T10:57:46;5.80;1.00
4637;DHT22;2331;48.806;9.140;2023-02-15T11:00:19;5.90;1.00
4637;DHT22;2331;48.806;9.140;2023-02-15T11:03:14;5.90;1.00
4637;DHT22;2331;48.806;9.140;2023-02-15T11:05:49;6.00;1.00
4637;DHT22;2331;48.806;9.140;2023-02-15T11:08:23;6.10;1.00
4637;DHT22;2331;48.806;9.140;2023-02-15T11:10:54;6.20;1.00
4637;DHT22;2331;48.806;9.140;2023-02-15T11:13:29;6.40;1.00
4637;DHT22;2331;48.806;9.140;2023-02-15T11:16:01;6.50;1.00
4637;DHT22;2331;48.806;9.140;2023-02-15T11:18:33;6.70;1.00
4637;DHT22;2331;48.806;9.140;2023-02-15T11:21:02;6.80;1.00
4637;DHT22;2331;48.806;9.140;2023-02-15T11:23:32;6.90;1.00
4637;DHT22;2331;48.806;9.140;2023-02-15T11:26:11;7.00;1.00
4637;DHT22;2331;48.806;9.140;2023-02-15T11:28:42;7.10;1.00
4637;DHT22;2331;48.806;9.140;2023-02-15T11:31:13;7.10;1.00
4637;DHT22;2331;48.806;9.140;2023-02-15T11:33:44;7.20;1.00
4637;DHT22;2331;48.806;9.140;2023-02-15T11:36:15;7.20;1.00
4637;DHT22;2331;48.806;9.140;2023-02-15T11:38:45;7.20;1.00
4637;DHT22;2331;48.806;9.140;2023-02-15T11:41:16;7.20;1.00
4637;DHT22;2331;48.806;9.140;2023-02-15T11:43:49;7.30;1.00
4637;DHT22;2331;48.806;9.140;2023-02-15T11:46:17;7.40;1.00
4637;DHT22;2331;48.806;9.140;2023-02-15T11:48:45;7.40;1.00
4637;DHT22;2331;48.806;9.140;2023-02-15T11:51:15;7.60;1.00
4637;DHT22;2331;48.806;9.140;2023-02-15T11:53:45;7.60;1.00
4637;DHT22;2331;48.806;9.140;2023-02-15T11:56:15;7.60;1.00
4637;DHT22;2331;48.806;9.140;2023-02-15T11:58:45;7.80;1.00
4637;DHT22;2331;48.806;9.140;2023-02-15T12:01:16;7.90;1.00
4637;DHT22;2331;48.806;9.140;2023-02-15T12:03:46;7.90;1.00
4637;DHT22;2331;48.806;9.140;2023-02-15T12:06:22;8.10;1.00
4637;DHT22;2331;48.806;9.140;2023-02-15T12:08:57;8.20;1.00
4637;DHT22;2331;48.806;9.140;2023-02-15T12:11:32;8.30;1.00
4637;DHT22;2331;48.806;9.140;2023-02-15T12:14:02;8.30;1.00
4637;DHT22;2331;48.806;9.140;2023-02-15T12:16:34;8.50;1.00
4637;DHT22;2331;48.806;9.140;2023-02-15T12:19:19;8.60;1.00
4637;DHT22;2331;48.806;9.140;2023-02-15T12:21:50;8.70;1.00
4637;DHT22;2331;48.806;9.140;2023-02-15T12:24:21;8.80;1.00
4637;DHT22;2331;48.806;9.140;2023-02-15T12:26:58;8.90;1.00
4637;DHT22;2331;48.806;9.140;2023-02-15T12:29:28;9.00;1.00
4637;DHT22;2331;48.806;9.140;2023-02-15T12:31:57;9.10;1.00
4637;DHT22;2331;48.806;9.140;2023-02-15T12:34:26;9.30;1.00
4637;DHT22;2331;48.806;9.140;2023-02-15T12:36:56;9.40;1.00
4637;DHT22;2331;48.806;9.140;2023-02-15T12:39:27;9.40;1.00
4637;DHT22;2331;48.806;9.140;2023-02-15T12:42:03;9.50;1.00
4637;DHT22;2331;48.806;9.140;2023-02-15T12:44:32;9.60;1.00
4637;DHT22;2331;48.806;9.140;2023-02-15T12:47:01;9.80;1.00
4637;DHT22;2331;48.806;9.140;2023-02-15T12:49:30;9.90;1.00
4637;DHT22;2331;48.806;9.140;2023-02-15T12:51:58;10.00;1.00
4637;DHT22;2331;48.806;9.140;2023-02-15T12:54:38;10.20;1.00
4637;DHT22;2331;48.806;9.140;2023-02-15T12:57:21;10.30;1.00
4637;DHT22;2331;48.806;9.140;2023-02-15T12:59:50;10.40;1.00
4637;DHT22;2331;48.806;9.140;2023-02-15T13:02:22;10.40;1.00
4637;DHT22;2331;48.806;9.140;2023-02-15T13:04:50;10.40;1.00
4637;DHT22;2331;48.806;9.140;2023-02-15T13:07:17;10.50;1.00
4637;DHT22;2331;48.806;9.140;2023-02-15T13:09:45;10.60;1.00
4637;DHT22;2331;48.806;9.140;2023-02-15T13:12:20;10.70;1.00
4637;DHT22;2331;48.806;9.140;2023-02-15T13:14:50;10.80;1.00
4637;DHT22;2331;48.806;9.140;2023-02-15T13:17:20;11.00;1.00
4637;DHT22;2331;48.806;9.140;2023-02-15T13:19:51;11.00;1.00
4637;DHT22;2331;48.806;9.140;2023-02-15T13:22:22;11.10;1.00
4637;DHT22;2331;48.806;9.140;2023-02-15T13:24:55;11.10;1.00
4637;DHT22;2331;48.806;9.140;2023-02-15T13:27:26;11.30;1.00
4637;DHT22;2331;48.806;9.140;2023-02-15T13:29:58;11.30;1.00
4637;DHT22;2331;48.806;9.140;2023-02-15T13:32:29;11.40;1.00
4637;DHT22;2331;48.806;9.140;2023-02-15T13:34:58;11.60;1.00
4637;DHT22;2331;48.806;9.140;2023-02-15T13:37:39;11.60;1.00
4637;DHT22;2331;48.806;9.140;2023-02-15T13:40:13;11.70;1.00
4637;DHT22;2331;48.806;9.140;2023-02-15T13:42:42;11.70;1.00
4637;DHT22;2331;48.806;9.140;2023-02-15T13:45:26;11.80;1.00
4637;DHT22;2331;48.806;9.140;2023-02-15T13:47:59;11.80;1.00
4637;DHT22;2331;48.806;9.140;2023-02-15T13:50:38;11.90;1.00
4637;DHT22;2331;48.806;9.140;2023-02-15T13:53:22;12.00;1.00
4637;DHT22;2331;48.806;9.140;2023-02-15T13:55:55;12.00;1.00
4637;DHT22;2331;48.806;9.140;2023-02-15T13:58:37;12.10;1.00
4637;DHT22;2331;48.806;9.140;2023-02-15T14:01:13;12.20;1.00
4637;DHT22;2331;48.806;9.140;2023-02-15T14:04:12;12.30;1.00
4637;DHT22;2331;48.806;9.140;2023-02-15T14:06:58;12.20;1.00
4637;DHT22;2331;48.806;9.140;2023-02-15T14:09:38;12.30;1.00
4637;DHT22;2331;48.806;9.140;2023-02-15T14:12:30;12.40;1.00
4637;DHT22;2331;48.806;9.140;2023-02-15T14:15:23;12.40;1.00
4637;DHT22;2331;48.806;9.140;2023-02-15T14:17:59;12.40;1.00
4637;DHT22;2331;48.806;9.140;2023-02-15T14:20:39;12.40;1.00
4637;DHT22;2331;48.806;9.140;2023-02-15T14:23:14;12.30;1.00
4637;DHT22;2331;48.806;9.140;2023-02-15T14:25:48;12.40;1.00
4637;DHT22;2331;48.806;9.140;2023-02-15T14:28:21;12.40;1.00
4637;DHT22;2331;48.806;9.140;2023-02-15T14:30:53;12.50;1.00
4637;DHT22;2331;48.806;9.140;2023-02-15T14:33:31;12.50;1.00
4637;DHT22;2331;48.806;9.140;2023-02-15T14:35:58;12.50;1.00
4637;DHT22;2331;48.806;9.140;2023-02-15T14:38:39;12.50;1.00
4637;DHT22;2331;48.806;9.140;2023-02-15T14:41:12;12.50;1.00
4637;DHT22;2331;48.806;9.140;2023-02-15T14:43:49;12.50;1.00
4637;DHT22;2331;48.806;9.140;2023-02-15T14:46:27;12.50;1.00
4637;DHT22;2331;48.806;9.140;2023-02-15T14:49:03;12.50;1.00
4637;DHT22;2331;48.806;9.140;2023-02-15T14:51:56;12.50;1.00
4637;DHT22;2331;48.806;9.140;2023-02-15T14:54:52;12.40;1.00
4637;DHT22;2331;48.806;9.140;2023-02-15T14:57:33;12.30;1.00
4637;DHT22;2331;48.806;9.140;2023-02-15T15:00:04;12.30;1.00
4637;DHT22;2331;48.806;9.140;2023-02-15T15:02:43;12.30;1.00
4637;DHT22;2331;48.806;9.140;2023-02-15T15:05:15;12.20;1.00
4637;DHT22;2331;48.806;9.140;2023-02-15T15:07:44;12.30;1.00
4637;DHT22;2331;48.806;9.140;2023-02-15T15:10:38;12.40;1.00
4637;DHT22;2331;48.806;9.140;2023-02-15T15:13:51;12.20;1.00
4637;DHT22;2331;48.806;9.140;2023-02-15T15:16:48;12.20;1.00
4637;DHT22;2331;48.806;9.140;2023-02-15T15:22:34;12.20;1.00
4637;DHT22;2331;48.806;9.140;2023-02-15T15:25:02;12.30;1.00
4637;DHT22;2331;48.806;9.140;2023-02-15T15:27:40;12.20;1.00
4637;DHT22;2331;48.806;9.140;2023-02-15T15:30:48;12.30;1.00
4637;DHT22;2331;48.806;9.140;2023-02-15T15:33:58;12.20;1.00
4637;DHT22;2331;48.806;9.140;2023-02-15T15:39:55;12.20;1.00
4637;DHT22;2331;48.806;9.140;2023-02-15T15:42:32;12.20;1.00
4637;DHT22;2331;48.806;9.140;2023-02-15T15:45:45;12.20;1.00
4637;DHT22;2331;48.806;9.140;2023-02-15T15:48:31;12.00;1.00
4637;DHT22;2331;48.806;9.140;2023-02-15T15:51:02;12.10;1.00
4637;DHT22;2331;48.806;9.140;2023-02-15T15:53:34;12.10;1.00
4637;DHT22;2331;48.806;9.140;2023-02-15T15:56:06;12.00;1.00
4637;DHT22;2331;48.806;9.140;2023-02-15T15:58:35;12.00;1.00
4637;DHT22;2331;48.806;9.140;2023-02-15T16:01:06;12.00;1.00
4637;DHT22;2331;48.806;9.140;2023-02-15T16:03:36;11.90;1.00
4637;DHT22;2331;48.806;9.140;2023-02-15T16:06:03;11.90;1.00
4637;DHT22;2331;48.806;9.140;2023-02-15T16:08:31;11.90;1.00
4637;DHT22;2331;48.806;9.140;2023-02-15T16:10:59;11.90;1.00
4637;DHT22;2331;48.806;9.140;2023-02-15T16:13:26;11.80;1.00
4637;DHT22;2331;48.806;9.140;2023-02-15T16:15:54;11.80;1.00
4637;DHT22;2331;48.806;9.140;2023-02-15T16:18:24;11.60;1.00
4637;DHT22;2331;48.806;9.140;2023-02-15T16:20:55;11.50;1.00
4637;DHT22;2331;48.806;9.140;2023-02-15T16:23:49;11.30;1.00
4637;DHT22;2331;48.806;9.140;2023-02-15T16:26:31;11.10;1.00
4637;DHT22;2331;48.806;9.140;2023-02-15T16:29:00;11.00;1.00
4637;DHT22;2331;48.806;9.140;2023-02-15T16:31:27;10.80;1.00
4637;DHT22;2331;48.806;9.140;2023-02-15T16:33:54;10.80;1.00
4637;DHT22;2331;48.806;9.140;2023-02-15T16:36:24;10.70;1.00
4637;DHT22;2331;48.806;9.140;2023-02-15T16:39:18;10.60;1.00
4637;DHT22;2331;48.806;9.140;2023-02-15T16:41:45;10.70;1.00
4637;DHT22;2331;48.806;9.140;2023-02-15T16:44:16;10.70;1.00
4637;DHT22;2331;48.806;9.140;2023-02-15T16:46:45;10.70;1.00
4637;DHT22;2331;48.806;9.140;2023-02-15T16:49:16;10.70;1.00
4637;DHT22;2331;48.806;9.140;2023-02-15T16:51:45;10.70;1.00
4637;DHT22;2331;48.806;9.140;2023-02-15T16:54:21;10.60;1.00
4637;DHT22;2331;48.806;9.140;2023-02-15T16:56:49;10.60;1.00
4637;DHT22;2331;48.806;9.140;2023-02-15T16:59:28;10.50;1.00
4637;DHT22;2331;48.806;9.140;2023-02-15T17:01:56;10.30;1.00
4637;DHT22;2331;48.806;9.140;2023-02-15T17:04:28;10.30;1.00
4637;DHT22;2331;48.806;9.140;2023-02-15T17:07:04;10.20;1.00
4637;DHT22;2331;48.806;9.140;2023-02-15T17:09:32;10.10;1.00
4637;DHT22;2331;48.806;9.140;2023-02-15T17:11:59;9.90;1.00
4637;DHT22;2331;48.806;9.140;2023-02-15T17:14:29;9.80;1.00